sensor_id;sensor_type;location;lat;lon;timestamp;pressure;altitude;pressure_sealevel;temperature;humidity
31092;BME280;67728;53.122;12.776;2023-04-01T00:00:13;98825.31;;;8.09;92.20
31092;BME280;67728;53.122;12.776;2023-04-01T00:01:44;98830.53;;;8.07;92.39
31092;BME280;67728;53.122;12.776;2023-04-01T00:03:18;98826.16;;;8.09;92.54
31092;BME280;67728;53.122;12.776;2023-04-01T00:04:49;98824.31;;;8.13;92.12
31092;BME280;67728;53.122;12.776;2023-04-01T00:06:21;98826.84;;;8.14;92.12
31092;BME280;67728;53.122;12.776;2023-04-01T00:07:53;98830.38;;;8.12;92.40
31092;BME280;67728;53.122;12.776;2023-04-01T00:09:24;98827.75;;;8.13;92.95
31092;BME280;67728;53.122;12.776;2023-04-01T00:10:56;98831.22;;;8.12;92.63
31092;BME280;67728;53.122;12.776;2023-04-01T00:12:27;98828.63;;;8.12;92.05
31092;BME280;67728;53.122;12.776;2023-04-01T00:13:58;98832.06;;;8.13;92.44
31092;BME280;67728;53.122;12.776;2023-04-01T00:15:30;98830.34;;;8.13;92.51
31092;BME280;67728;53.122;12.776;2023-04-01T00:17:01;98827.69;;;8.15;92.27
31092;BME280;67728;53.122;12.776;2023-04-01T00:18:34;98826.94;;;8.11;92.78
31092;BME280;67728;53.122;12.776;2023-04-01T00:20:07;98838.28;;;8.07;93.04
31092;BME280;67728;53.122;12.776;2023-04-01T00:21:39;98840.91;;;8.06;92.73
31092;BME280;67728;53.122;12.776;2023-04-01T00:23:11;98840.97;;;8.04;93.09
31092;BME280;67728;53.122;12.776;2023-04-01T00:24:43;98837.53;;;8.04;93.56
31092;BME280;67728;53.122;12.776;2023-04-01T00:26:14;98837.66;;;8.01;93.16
31092;BME280;67728;53.122;12.776;2023-04-01T00:27:49;98832.59;;;7.98;93.69
31092;BME280;67728;53.122;12.776;2023-04-01T00:29:20;98836.00;;;7.98;93.33
31092;BME280;67728;53.122;12.776;2023-04-01T00:30:54;98839.44;;;7.99;93.89
31092;BME280;67728;53.122;12.776;2023-04-01T00:32:26;98834.34;;;7.97;93.42
31092;BME280;67728;53.122;12.776;2023-04-01T00:33:59;98841.16;;;8.00;93.45
31092;BME280;67728;53.122;12.776;2023-04-01T00:35:30;98836.88;;;7.99;93.93
31092;BME280;67728;53.122;12.776;2023-04-01T00:37:02;98829.22;;;7.96;93.84
31092;BME280;67728;53.122;12.776;2023-04-01T00:38:34;98832.72;;;7.95;93.49
31092;BME280;67728;53.122;12.776;2023-04-01T00:40:07;98836.00;;;7.98;93.64
31092;BME280;67728;53.122;12.776;2023-04-01T00:41:39;98837.75;;;7.98;94.02
31092;BME280;67728;53.122;12.776;2023-04-01T00:43:13;98841.16;;;8.00;93.93
31092;BME280;67728;53.122;12.776;2023-04-01T00:44:48;98827.44;;;7.98;93.71
31092;BME280;67728;53.122;12.776;2023-04-01T00:46:21;98832.59;;;7.98;94.09
31092;BME280;67728;53.122;12.776;2023-04-01T00:47:53;98830.00;;;7.98;94.24
31092;BME280;67728;53.122;12.776;2023-04-01T00:49:29;98828.34;;;7.97;94.18
31092;BME280;67728;53.122;12.776;2023-04-01T00:51:05;98830.91;;;7.97;94.19
31092;BME280;67728;53.122;12.776;2023-04-01T00:52:37;98834.38;;;7.96;93.92
31092;BME280;67728;53.122;12.776;2023-04-01T00:54:09;98832.59;;;7.98;94.42
31092;BME280;67728;53.122;12.776;2023-04-01T00:55:44;98836.00;;;7.98;94.69
31092;BME280;67728;53.122;12.776;2023-04-01T00:57:19;98825.75;;;7.97;94.57
31092;BME280;67728;53.122;12.776;2023-04-01T00:58:57;98830.75;;;8.01;93.95
31092;BME280;67728;53.122;12.776;2023-04-01T01:00:30;98835.88;;;8.03;93.99
31092;BME280;67728;53.122;12.776;2023-04-01T01:02:02;98830.53;;;8.07;94.04
31092;BME280;67728;53.122;12.776;2023-04-01T01:03:34;98830.56;;;8.06;94.27
31092;BME280;67728;53.122;12.776;2023-04-01T01:05:08;98832.28;;;8.07;94.22
31092;BME280;67728;53.122;12.776;2023-04-01T01:06:46;98833.03;;;8.10;93.95
31092;BME280;67728;53.122;12.776;2023-04-01T01:08:30;98830.25;;;8.15;94.19
31092;BME280;67728;53.122;12.776;2023-04-01T01:10:10;98830.25;;;8.15;94.16
31092;BME280;67728;53.122;12.776;2023-04-01T01:11:50;98831.31;;;8.09;94.46
31092;BME280;67728;53.122;12.776;2023-04-01T01:13:27;98828.56;;;8.14;94.52
31092;BME280;67728;53.122;12.776;2023-04-01T01:15:11;98835.44;;;8.15;94.19
31092;BME280;67728;53.122;12.776;2023-04-01T01:16:44;98833.88;;;8.11;94.11
31092;BME280;67728;53.122;12.776;2023-04-01T01:18:21;98826.06;;;8.12;94.05
31092;BME280;67728;53.122;12.776;2023-04-01T01:22:21;98828.53;;;8.15;93.63
31092;BME280;67728;53.122;12.776;2023-04-01T01:24:22;98839.72;;;8.16;94.10
31092;BME280;67728;53.122;12.776;2023-04-01T01:26:21;98834.44;;;8.19;94.00
31092;BME280;67728;53.122;12.776;2023-04-01T01:28:15;98834.25;;;8.23;93.92
31092;BME280;67728;53.122;12.776;2023-04-01T01:30:01;98841.00;;;8.27;93.80
31092;BME280;67728;53.122;12.776;2023-04-01T01:31:44;98843.63;;;8.26;93.90
31092;BME280;67728;53.122;12.776;2023-04-01T01:33:35;98840.38;;;8.21;94.04
31092;BME280;67728;53.122;12.776;2023-04-01T01:35:22;98845.75;;;8.15;93.55
31092;BME280;67728;53.122;12.776;2023-04-01T01:36:58;98846.59;;;8.15;93.82
31092;BME280;67728;53.122;12.776;2023-04-01T01:38:33;98844.03;;;8.15;93.77
31092;BME280;67728;53.122;12.776;2023-04-01T01:40:09;98832.06;;;8.13;93.79
31092;BME280;67728;53.122;12.776;2023-04-01T01:41:42;98840.59;;;8.15;94.25
31092;BME280;67728;53.122;12.776;2023-04-01T01:43:21;98844.81;;;8.17;93.66
31092;BME280;67728;53.122;12.776;2023-04-01T01:44:56;98845.66;;;8.18;94.17
31092;BME280;67728;53.122;12.776;2023-04-01T01:46:31;98846.53;;;8.17;94.13
31092;BME280;67728;53.122;12.776;2023-04-01T01:48:04;98839.63;;;8.17;94.21
31092;BME280;67728;53.122;12.776;2023-04-01T01:49:36;98848.03;;;8.24;93.75
31092;BME280;67728;53.122;12.776;2023-04-01T01:51:09;98855.81;;;8.22;94.32
31092;BME280;67728;53.122;12.776;2023-04-01T01:52:41;98845.38;;;8.27;94.11
31092;BME280;67728;53.122;12.776;2023-04-01T01:54:13;98848.72;;;8.29;94.49
31092;BME280;67728;53.122;12.776;2023-04-01T01:55:46;98844.44;;;8.28;93.84
31092;BME280;67728;53.122;12.776;2023-04-01T01:57:22;98846.19;;;8.27;94.58
31092;BME280;67728;53.122;12.776;2023-04-01T01:58:58;98845.09;;;8.34;93.60
31092;BME280;67728;53.122;12.776;2023-04-01T02:00:32;98848.50;;;8.35;94.06
31092;BME280;67728;53.122;12.776;2023-04-01T02:02:06;98846.75;;;8.35;94.03
31092;BME280;67728;53.122;12.776;2023-04-01T02:03:41;98846.81;;;8.34;93.99
31092;BME280;67728;53.122;12.776;2023-04-01T02:05:16;98849.22;;;8.38;94.24
31092;BME280;67728;53.122;12.776;2023-04-01T02:06:55;98852.63;;;8.40;94.31
31092;BME280;67728;53.122;12.776;2023-04-01T02:08:30;98853.72;;;8.33;94.25
31092;BME280;67728;53.122;12.776;2023-04-01T02:10:06;98852.72;;;8.37;94.13
31092;BME280;67728;53.122;12.776;2023-04-01T02:11:41;98843.91;;;8.43;93.88
31092;BME280;67728;53.122;12.776;2023-04-01T02:13:19;98850.53;;;8.27;93.43
31092;BME280;67728;53.122;12.776;2023-04-01T02:14:57;98848.81;;;8.26;93.67
31092;BME280;67728;53.122;12.776;2023-04-01T02:16:33;98847.09;;;8.25;93.85
31092;BME280;67728;53.122;12.776;2023-04-01T02:18:07;98848.72;;;8.29;94.12
31092;BME280;67728;53.122;12.776;2023-04-01T02:19:40;98843.56;;;8.29;93.87
31092;BME280;67728;53.122;12.776;2023-04-01T02:21:14;98852.16;;;8.29;94.01
31092;BME280;67728;53.122;12.776;2023-04-01T02:22:49;98849.63;;;8.28;93.71
31092;BME280;67728;53.122;12.776;2023-04-01T02:24:22;98852.16;;;8.29;93.37
31092;BME280;67728;53.122;12.776;2023-04-01T02:25:55;98851.13;;;8.33;94.00
31092;BME280;67728;53.122;12.776;2023-04-01T02:27:26;98848.56;;;8.33;94.06
31092;BME280;67728;53.122;12.776;2023-04-01T02:28:59;98856.31;;;8.33;93.32
31092;BME280;67728;53.122;12.776;2023-04-01T02:30:33;98849.31;;;8.35;93.96
31092;BME280;67728;53.122;12.776;2023-04-01T02:32:06;98852.09;;;8.31;93.53
31092;BME280;67728;53.122;12.776;2023-04-01T02:33:39;98852.72;;;8.37;93.90
31092;BME280;67728;53.122;12.776;2023-04-01T02:35:14;98856.97;;;8.38;93.49
31092;BME280;67728;53.122;12.776;2023-04-01T02:36:46;98856.88;;;8.41;93.84
31092;BME280;67728;53.122;12.776;2023-04-01T02:38:20;98862.66;;;8.48;93.24
31092;BME280;67728;53.122;12.776;2023-04-01T02:39:51;98861.06;;;8.44;93.36
31092;BME280;67728;53.122;12.776;2023-04-01T02:41:23;98855.97;;;8.43;93.59
31092;BME280;67728;53.122;12.776;2023-04-01T02:42:55;98867.16;;;8.43;93.86
31092;BME280;67728;53.122;12.776;2023-04-01T02:44:26;98861.16;;;8.43;93.68
31092;BME280;67728;53.122;12.776;2023-04-01T02:45:58;98858.56;;;8.43;93.49
31092;BME280;67728;53.122;12.776;2023-04-01T02:47:30;98863.00;;;8.39;93.99
31092;BME280;67728;53.122;12.776;2023-04-01T02:49:02;98861.25;;;8.39;93.47
31092;BME280;67728;53.122;12.776;2023-04-01T02:50:32;98867.25;;;8.40;93.71
31092;BME280;67728;53.122;12.776;2023-04-01T02:52:04;98866.31;;;8.43;93.83
31092;BME280;67728;53.122;12.776;2023-04-01T02:53:37;98864.91;;;8.34;93.59
31092;BME280;67728;53.122;12.776;2023-04-01T02:55:09;98871.06;;;8.30;93.91
31092;BME280;67728;53.122;12.776;2023-04-01T02:56:41;98883.03;;;8.32;94.06
31092;BME280;67728;53.122;12.776;2023-04-01T02:58:12;98873.50;;;8.34;93.88
31092;BME280;67728;53.122;12.776;2023-04-01T02:59:44;98875.41;;;8.29;94.00
31092;BME280;67728;53.122;12.776;2023-04-01T03:01:15;98879.63;;;8.32;93.95
31092;BME280;67728;53.122;12.776;2023-04-01T03:02:47;98879.63;;;8.32;94.24
31092;BME280;67728;53.122;12.776;2023-04-01T03:04:19;98882.03;;;8.36;94.19
31092;BME280;67728;53.122;12.776;2023-04-01T03:05:50;98878.66;;;8.34;94.03
31092;BME280;67728;53.122;12.776;2023-04-01T03:07:25;98882.88;;;8.37;93.64
31092;BME280;67728;53.122;12.776;2023-04-01T03:08:57;98881.91;;;8.39;93.69
31092;BME280;67728;53.122;12.776;2023-04-01T03:10:29;98886.34;;;8.36;94.05
31092;BME280;67728;53.122;12.776;2023-04-01T03:11:59;98892.28;;;8.38;93.82
31092;BME280;67728;53.122;12.776;2023-04-01T03:13:31;98889.84;;;8.35;93.76
31092;BME280;67728;53.122;12.776;2023-04-01T03:15:04;98891.50;;;8.36;93.65
31092;BME280;67728;53.122;12.776;2023-04-01T03:16:34;98894.88;;;8.38;93.38
31092;BME280;67728;53.122;12.776;2023-04-01T03:18:06;98893.94;;;8.40;93.93
31092;BME280;67728;53.122;12.776;2023-04-01T03:19:38;98894.16;;;8.34;93.93
31092;BME280;67728;53.122;12.776;2023-04-01T03:21:15;98895.91;;;8.34;93.95
31092;BME280;67728;53.122;12.776;2023-04-01T03:22:48;98891.00;;;8.25;93.75
31092;BME280;67728;53.122;12.776;2023-04-01T03:24:21;98896.03;;;8.05;93.89
31092;BME280;67728;53.122;12.776;2023-04-01T03:25:52;98895.00;;;8.10;93.67
31092;BME280;67728;53.122;12.776;2023-04-01T03:27:24;98896.88;;;7.80;93.26
31092;BME280;67728;53.122;12.776;2023-04-01T03:28:55;98894.38;;;7.77;93.42
31092;BME280;67728;53.122;12.776;2023-04-01T03:30:26;98903.59;;;7.84;93.25
31092;BME280;67728;53.122;12.776;2023-04-01T03:32:00;98904.31;;;7.63;93.12
31092;BME280;67728;53.122;12.776;2023-04-01T03:33:31;98907.69;;;7.65;93.77
31092;BME280;67728;53.122;12.776;2023-04-01T03:35:04;98907.91;;;7.59;93.70
31092;BME280;67728;53.122;12.776;2023-04-01T03:36:36;98905.50;;;7.53;92.76
31092;BME280;67728;53.122;12.776;2023-04-01T03:38:07;98905.00;;;7.42;93.04
31092;BME280;67728;53.122;12.776;2023-04-01T03:39:41;98910.59;;;7.29;92.78
31092;BME280;67728;53.122;12.776;2023-04-01T03:41:12;98920.41;;;7.17;92.24
31092;BME280;67728;53.122;12.776;2023-04-01T03:42:44;98903.97;;;7.20;92.39
31092;BME280;67728;53.122;12.776;2023-04-01T03:44:16;98922.97;;;7.17;92.98
31092;BME280;67728;53.122;12.776;2023-04-01T03:45:50;98919.84;;;7.08;92.59
31092;BME280;67728;53.122;12.776;2023-04-01T03:47:22;98917.34;;;7.05;92.17
31092;BME280;67728;53.122;12.776;2023-04-01T03:48:53;98923.47;;;7.01;92.24
31092;BME280;67728;53.122;12.776;2023-04-01T03:50:25;98922.75;;;6.97;92.30
31092;BME280;67728;53.122;12.776;2023-04-01T03:51:56;98929.25;;;7.09;91.97
31092;BME280;67728;53.122;12.776;2023-04-01T03:53:27;98929.53;;;7.00;91.98
31092;BME280;67728;53.122;12.776;2023-04-01T03:55:00;98936.25;;;7.05;92.43
31092;BME280;67728;53.122;12.776;2023-04-01T03:56:32;98932.94;;;7.00;92.29
31092;BME280;67728;53.122;12.776;2023-04-01T03:58:04;98940.91;;;6.93;91.91
31092;BME280;67728;53.122;12.776;2023-04-01T03:59:36;98940.97;;;6.91;91.99
31092;BME280;67728;53.122;12.776;2023-04-01T04:01:15;98938.59;;;6.84;92.00
31092;BME280;67728;53.122;12.776;2023-04-01T04:02:45;98946.41;;;6.81;92.14
31092;BME280;67728;53.122;12.776;2023-04-01T04:04:17;98941.34;;;6.78;92.44
31092;BME280;67728;53.122;12.776;2023-04-01T04:05:49;98941.44;;;6.75;92.60
31092;BME280;67728;53.122;12.776;2023-04-01T04:07:21;98950.03;;;6.74;92.52
31092;BME280;67728;53.122;12.776;2023-04-01T04:08:53;98944.09;;;6.72;92.42
31092;BME280;67728;53.122;12.776;2023-04-01T04:10:26;98940.88;;;6.63;92.85
31092;BME280;67728;53.122;12.776;2023-04-01T04:11:59;98948.53;;;6.67;93.09
31092;BME280;67728;53.122;12.776;2023-04-01T04:13:31;98951.81;;;6.72;92.79
31092;BME280;67728;53.122;12.776;2023-04-01T04:15:02;98954.34;;;6.73;92.29
31092;BME280;67728;53.122;12.776;2023-04-01T04:16:34;98949.56;;;6.61;92.65
31092;BME280;67728;53.122;12.776;2023-04-01T04:18:07;98949.41;;;6.66;92.83
31092;BME280;67728;53.122;12.776;2023-04-01T04:19:37;98954.78;;;6.58;92.75
31092;BME280;67728;53.122;12.776;2023-04-01T04:21:12;98948.28;;;6.45;92.40
31092;BME280;67728;53.122;12.776;2023-04-01T04:22:44;98955.88;;;6.49;92.99
31092;BME280;67728;53.122;12.776;2023-04-01T04:24:15;98954.78;;;6.58;92.84
31092;BME280;67728;53.122;12.776;2023-04-01T04:25:55;98964.16;;;6.60;93.26
31092;BME280;67728;53.122;12.776;2023-04-01T04:27:27;98960.94;;;6.52;92.19
31092;BME280;67728;53.122;12.776;2023-04-01T04:28:59;98959.72;;;6.35;92.03
31092;BME280;67728;53.122;12.776;2023-04-01T04:30:31;98961.59;;;6.28;92.46
31092;BME280;67728;53.122;12.776;2023-04-01T04:32:03;98964.97;;;6.30;92.20
31092;BME280;67728;53.122;12.776;2023-04-01T04:33:35;98966.75;;;6.28;92.48
31092;BME280;67728;53.122;12.776;2023-04-01T04:35:06;98967.72;;;6.24;92.39
31092;BME280;67728;53.122;12.776;2023-04-01T04:36:38;98970.53;;;6.15;92.71
31092;BME280;67728;53.122;12.776;2023-04-01T04:38:10;98970.47;;;6.18;92.54
31092;BME280;67728;53.122;12.776;2023-04-01T04:39:41;98967.38;;;6.04;92.20
31092;BME280;67728;53.122;12.776;2023-04-01T04:41:16;98967.31;;;6.07;92.66
31092;BME280;67728;53.122;12.776;2023-04-01T04:42:48;98970.53;;;6.15;92.31
31092;BME280;67728;53.122;12.776;2023-04-01T04:44:18;98969.00;;;6.08;92.44
31092;BME280;67728;53.122;12.776;2023-04-01T04:45:51;98971.47;;;6.11;92.63
31092;BME280;67728;53.122;12.776;2023-04-01T04:47:22;98983.53;;;6.09;92.03
31092;BME280;67728;53.122;12.776;2023-04-01T04:48:54;98976.72;;;6.08;92.32
31092;BME280;67728;53.122;12.776;2023-04-01T04:50:26;98974.97;;;6.09;92.58
31092;BME280;67728;53.122;12.776;2023-04-01T04:51:56;98983.88;;;5.97;92.52
31092;BME280;67728;53.122;12.776;2023-04-01T04:53:28;98986.31;;;6.01;92.72
31092;BME280;67728;53.122;12.776;2023-04-01T04:55:00;98987.25;;;5.99;92.68
31092;BME280;67728;53.122;12.776;2023-04-01T04:56:33;98989.19;;;5.89;92.42
31092;BME280;67728;53.122;12.776;2023-04-01T04:58:06;98991.66;;;5.94;92.04
31092;BME280;67728;53.122;12.776;2023-04-01T04:59:37;98993.25;;;5.99;91.67
31092;BME280;67728;53.122;12.776;2023-04-01T05:01:11;98992.53;;;5.93;91.96
31092;BME280;67728;53.122;12.776;2023-04-01T05:02:43;99000.38;;;5.88;91.95
31092;BME280;67728;53.122;12.776;2023-04-01T05:04:14;98998.66;;;5.89;92.27
31092;BME280;67728;53.122;12.776;2023-04-01T05:05:50;98998.66;;;5.87;91.74
31092;BME280;67728;53.122;12.776;2023-04-01T05:07:21;98997.81;;;5.87;92.54
31092;BME280;67728;53.122;12.776;2023-04-01T05:08:53;99004.53;;;5.92;91.67
31092;BME280;67728;53.122;12.776;2023-04-01T05:10:25;98999.47;;;5.89;92.30
31092;BME280;67728;53.122;12.776;2023-04-01T05:11:58;99000.38;;;5.87;92.32
31092;BME280;67728;53.122;12.776;2023-04-01T05:13:29;99004.47;;;5.97;91.98
31092;BME280;67728;53.122;12.776;2023-04-01T05:15:01;99003.78;;;5.89;91.93
31092;BME280;67728;53.122;12.776;2023-04-01T05:16:33;99002.81;;;5.94;92.62
31092;BME280;67728;53.122;12.776;2023-04-01T05:18:04;99004.53;;;5.92;92.01
31092;BME280;67728;53.122;12.776;2023-04-01T05:19:35;99002.09;;;5.88;92.11
31092;BME280;67728;53.122;12.776;2023-04-01T05:21:08;99007.28;;;5.86;91.95
31092;BME280;67728;53.122;12.776;2023-04-01T05:22:39;99015.19;;;5.76;92.22
31092;BME280;67728;53.122;12.776;2023-04-01T05:24:11;99019.41;;;5.80;92.18
31092;BME280;67728;53.122;12.776;2023-04-01T05:25:43;99013.31;;;5.84;91.98
31092;BME280;67728;53.122;12.776;2023-04-01T05:27:16;99018.47;;;5.82;92.38
31092;BME280;67728;53.122;12.776;2023-04-01T05:28:47;99016.75;;;5.83;91.80
31092;BME280;67728;53.122;12.776;2023-04-01T05:30:19;99021.94;;;5.81;92.28
31092;BME280;67728;53.122;12.776;2023-04-01T05:31:50;99018.75;;;5.72;91.98
31092;BME280;67728;53.122;12.776;2023-04-01T05:33:22;99025.66;;;5.68;92.31
31092;BME280;67728;53.122;12.776;2023-04-01T05:34:54;99023.94;;;5.69;92.23
31092;BME280;67728;53.122;12.776;2023-04-01T05:36:25;99023.75;;;5.76;92.26
31092;BME280;67728;53.122;12.776;2023-04-01T05:37:57;99024.63;;;5.77;92.42
31092;BME280;67728;53.122;12.776;2023-04-01T05:39:29;99025.84;;;5.61;92.23
31092;BME280;67728;53.122;12.776;2023-04-01T05:41:01;99026.41;;;5.73;92.05
31092;BME280;67728;53.122;12.776;2023-04-01T05:42:34;99024.63;;;5.77;92.56
31092;BME280;67728;53.122;12.776;2023-04-01T05:44:06;99029.81;;;5.75;91.89
31092;BME280;67728;53.122;12.776;2023-04-01T05:45:37;99033.50;;;5.64;91.53
31092;BME280;67728;53.122;12.776;2023-04-01T05:47:09;99033.63;;;5.59;91.58
31092;BME280;67728;53.122;12.776;2023-04-01T05:48:40;99030.97;;;5.62;91.73
31092;BME280;67728;53.122;12.776;2023-04-01T05:50:12;99033.56;;;5.61;91.64
31092;BME280;67728;53.122;12.776;2023-04-01T05:51:43;99041.25;;;5.62;91.55
31092;BME280;67728;53.122;12.776;2023-04-01T05:53:15;99035.34;;;5.59;91.55
31092;BME280;67728;53.122;12.776;2023-04-01T05:54:47;99038.03;;;5.54;92.12
31092;BME280;67728;53.122;12.776;2023-04-01T05:56:18;99042.31;;;5.52;91.70
31092;BME280;67728;53.122;12.776;2023-04-01T05:57:51;99033.81;;;5.50;92.22
31092;BME280;67728;53.122;12.776;2023-04-01T05:59:23;99046.59;;;5.53;92.19
31092;BME280;67728;53.122;12.776;2023-04-01T06:01:00;99043.69;;;5.68;92.29
31092;BME280;67728;53.122;12.776;2023-04-01T06:02:32;99042.88;;;5.66;91.74
31092;BME280;67728;53.122;12.776;2023-04-01T06:04:04;99051.00;;;5.47;91.54
31092;BME280;67728;53.122;12.776;2023-04-01T06:05:39;99056.09;;;5.50;91.76
31092;BME280;67728;53.122;12.776;2023-04-01T06:07:12;99056.03;;;5.53;91.99
31092;BME280;67728;53.122;12.776;2023-04-01T06:08:44;99056.22;;;5.43;91.82
31092;BME280;67728;53.122;12.776;2023-04-01T06:10:17;99060.19;;;5.58;92.14
31092;BME280;67728;53.122;12.776;2023-04-01T06:12:10;99062.22;;;5.44;91.87
31092;BME280;67728;53.122;12.776;2023-04-01T06:14:11;99060.16;;;5.60;91.65
31092;BME280;67728;53.122;12.776;2023-04-01T06:15:53;99059.22;;;5.64;91.76
31092;BME280;67728;53.122;12.776;2023-04-01T06:17:43;99060.81;;;5.69;91.39
31092;BME280;67728;53.122;12.776;2023-04-01T06:19:27;99067.50;;;5.76;91.24
31092;BME280;67728;53.122;12.776;2023-04-01T06:21:06;99067.78;;;5.64;91.51
31092;BME280;67728;53.122;12.776;2023-04-01T06:23:06;99071.16;;;5.66;91.68
31092;BME280;67728;53.122;12.776;2023-04-01T06:24:59;99068.19;;;5.86;91.10
31092;BME280;67728;53.122;12.776;2023-04-01T06:26:37;99078.53;;;5.81;91.04
31092;BME280;67728;53.122;12.776;2023-04-01T06:30:33;99080.34;;;5.76;90.70
31092;BME280;67728;53.122;12.776;2023-04-01T06:32:17;99082.88;;;5.79;90.74
31092;BME280;67728;53.122;12.776;2023-04-01T06:34:05;99078.84;;;5.68;91.15
31092;BME280;67728;53.122;12.776;2023-04-01T06:36:06;99085.00;;;5.61;90.91
31092;BME280;67728;53.122;12.776;2023-04-01T06:38:03;99094.41;;;5.62;91.82
31092;BME280;67728;53.122;12.776;2023-04-01T06:40:01;99092.78;;;5.58;90.93
31092;BME280;67728;53.122;12.776;2023-04-01T06:42:07;99086.47;;;5.72;91.15
31092;BME280;67728;53.122;12.776;2023-04-01T06:43:50;99090.69;;;5.75;91.29
31092;BME280;67728;53.122;12.776;2023-04-01T06:45:33;99086.47;;;5.72;91.48
31092;BME280;67728;53.122;12.776;2023-04-01T06:47:21;99097.00;;;5.62;91.16
31092;BME280;67728;53.122;12.776;2023-04-01T06:49:05;99097.72;;;5.67;91.63
31092;BME280;67728;53.122;12.776;2023-04-01T06:50:44;99096.00;;;5.67;91.68
31092;BME280;67728;53.122;12.776;2023-04-01T06:52:25;99101.00;;;5.73;90.67
31092;BME280;67728;53.122;12.776;2023-04-01T06:54:04;99107.06;;;5.71;90.94
31092;BME280;67728;53.122;12.776;2023-04-01T06:55:41;99098.13;;;5.49;90.76
31092;BME280;67728;53.122;12.776;2023-04-01T06:57:21;99098.72;;;5.61;90.89
31092;BME280;67728;53.122;12.776;2023-04-01T06:58:58;99109.09;;;5.57;91.19
31092;BME280;67728;53.122;12.776;2023-04-01T07:00:33;99099.50;;;5.65;91.07
31092;BME280;67728;53.122;12.776;2023-04-01T07:02:18;99109.78;;;5.65;90.95
31092;BME280;67728;53.122;12.776;2023-04-01T07:03:53;99108.94;;;5.63;91.08
31092;BME280;67728;53.122;12.776;2023-04-01T07:05:31;99114.03;;;5.66;91.42
31092;BME280;67728;53.122;12.776;2023-04-01T07:07:05;99113.22;;;5.64;91.29
31092;BME280;67728;53.122;12.776;2023-04-01T07:08:41;99111.47;;;5.66;91.17
31092;BME280;67728;53.122;12.776;2023-04-01T07:10:19;99112.34;;;5.65;91.04
31092;BME280;67728;53.122;12.776;2023-04-01T07:11:53;99121.78;;;5.64;91.32
31092;BME280;67728;53.122;12.776;2023-04-01T07:13:31;99121.81;;;5.63;90.87
31092;BME280;67728;53.122;12.776;2023-04-01T07:15:14;99123.41;;;5.68;90.59
31092;BME280;67728;53.122;12.776;2023-04-01T07:16:51;99122.50;;;5.71;90.97
31092;BME280;67728;53.122;12.776;2023-04-01T07:18:31;99119.38;;;5.57;90.85
31092;BME280;67728;53.122;12.776;2023-04-01T07:20:09;99120.94;;;5.64;90.95
31092;BME280;67728;53.122;12.776;2023-04-01T07:21:47;99120.91;;;5.65;90.87
31092;BME280;67728;53.122;12.776;2023-04-01T07:23:24;99130.28;;;5.68;90.74
31092;BME280;67728;53.122;12.776;2023-04-01T07:24:59;99133.28;;;5.47;90.95
31092;BME280;67728;53.122;12.776;2023-04-01T07:26:33;99124.50;;;5.58;91.14
31092;BME280;67728;53.122;12.776;2023-04-01T07:28:06;99134.03;;;5.53;91.20
31092;BME280;67728;53.122;12.776;2023-04-01T07:29:42;99135.16;;;5.40;91.34
31092;BME280;67728;53.122;12.776;2023-04-01T07:31:19;99139.44;;;5.39;91.67
31092;BME280;67728;53.122;12.776;2023-04-01T07:33:01;99143.53;;;5.50;91.46
31092;BME280;67728;53.122;12.776;2023-04-01T07:34:41;99139.97;;;5.57;90.93
31092;BME280;67728;53.122;12.776;2023-04-01T07:36:24;99140.66;;;5.63;91.51
31092;BME280;67728;53.122;12.776;2023-04-01T07:38:10;99143.81;;;5.76;91.51
31092;BME280;67728;53.122;12.776;2023-04-01T07:39:49;99138.84;;;5.68;90.89
31092;BME280;67728;53.122;12.776;2023-04-01T07:41:32;99151.63;;;5.73;91.08
31092;BME280;67728;53.122;12.776;2023-04-01T07:43:30;99147.47;;;5.67;91.02
31092;BME280;67728;53.122;12.776;2023-04-01T07:45:11;99154.31;;;5.67;90.92
31092;BME280;67728;53.122;12.776;2023-04-01T07:46:54;99148.28;;;5.68;91.14
31092;BME280;67728;53.122;12.776;2023-04-01T07:48:32;99152.50;;;5.72;91.11
31092;BME280;67728;53.122;12.776;2023-04-01T07:50:13;99156.91;;;5.65;90.76
31092;BME280;67728;53.122;12.776;2023-04-01T07:51:56;99152.13;;;5.49;90.43
31092;BME280;67728;53.122;12.776;2023-04-01T07:53:36;99161.25;;;5.63;90.59
31092;BME280;67728;53.122;12.776;2023-04-01T07:55:14;99156.16;;;5.60;89.99
31092;BME280;67728;53.122;12.776;2023-04-01T07:56:51;99162.00;;;5.68;90.60
31092;BME280;67728;53.122;12.776;2023-04-01T07:58:32;99160.28;;;5.69;90.76
31092;BME280;67728;53.122;12.776;2023-04-01T08:00:12;99165.34;;;5.72;91.09
31092;BME280;67728;53.122;12.776;2023-04-01T08:01:52;99172.22;;;5.73;90.09
31092;BME280;67728;53.122;12.776;2023-04-01T08:03:48;99174.09;;;5.63;89.97
31092;BME280;67728;53.122;12.776;2023-04-01T08:05:25;99174.97;;;5.64;90.13
31092;BME280;67728;53.122;12.776;2023-04-01T08:07:04;99178.22;;;5.72;90.23
31092;BME280;67728;53.122;12.776;2023-04-01T08:08:46;99169.94;;;5.58;90.16
31092;BME280;67728;53.122;12.776;2023-04-01T08:10:27;99184.22;;;5.71;89.86
31092;BME280;67728;53.122;12.776;2023-04-01T08:12:14;99179.81;;;5.76;89.91
31092;BME280;67728;53.122;12.776;2023-04-01T08:13:54;99179.06;;;5.72;89.13
31092;BME280;67728;53.122;12.776;2023-04-01T08:15:35;99187.53;;;5.77;89.01
31092;BME280;67728;53.122;12.776;2023-04-01T08:17:15;99191.94;;;5.72;90.66
31092;BME280;67728;53.122;12.776;2023-04-01T08:18:56;99195.69;;;5.55;89.53
31092;BME280;67728;53.122;12.776;2023-04-01T08:20:36;99192.22;;;5.59;90.78
31092;BME280;67728;53.122;12.776;2023-04-01T08:22:12;99198.97;;;5.64;90.39
31092;BME280;67728;53.122;12.776;2023-04-01T08:23:47;99191.31;;;5.60;90.10
31092;BME280;67728;53.122;12.776;2023-04-01T08:25:24;99199.72;;;5.68;90.39
31092;BME280;67728;53.122;12.776;2023-04-01T08:26:58;99202.50;;;5.57;89.79
31092;BME280;67728;53.122;12.776;2023-04-01T08:28:39;99201.59;;;5.60;90.18
31092;BME280;67728;53.122;12.776;2023-04-01T08:30:18;99199.81;;;5.65;90.12